createdAt,value
2022-07-29T03:32:49.244Z,1003.61
2022-07-29T03:33:51.398Z,1003.57
2022-07-29T03:34:53.516Z,1003.58
2022-07-29T03:35:54.550Z,1003.60
2022-07-29T03:36:56.635Z,1003.59
2022-07-29T03:37:58.760Z,1003.58
2022-07-29T03:38:59.963Z,1003.62
2022-07-29T03:40:01.178Z,1003.61
2022-07-29T03:41:03.272Z,1003.56
2022-07-29T03:42:05.409Z,1003.58
2022-07-29T03:43:07.604Z,1003.58
2022-07-29T03:44:08.564Z,1003.59
2022-07-29T03:45:10.683Z,1003.60
2022-07-29T03:46:12.855Z,1003.58
2022-07-29T03:47:15.064Z,1003.61
2022-07-29T03:48:17.184Z,1003.60
2022-07-29T03:49:19.469Z,1003.57
2022-07-29T03:50:20.623Z,1003.59
2022-07-29T03:51:33.248Z,1003.54
2022-07-29T03:52:24.747Z,1003.56
2022-07-29T03:53:25.789Z,1003.57
2022-07-29T03:54:27.915Z,1003.58
2022-07-29T03:55:30.132Z,1003.57
2022-07-29T03:56:31.083Z,1003.62
2022-07-29T03:57:39.337Z,1003.65
2022-07-29T03:58:34.498Z,1003.67
2022-07-29T03:59:35.689Z,1003.68
2022-07-29T04:00:37.811Z,1003.68
2022-07-29T04:01:40.072Z,1003.70
2022-07-29T04:02:41.067Z,1003.71
2022-07-29T04:03:43.245Z,1003.74
2022-07-29T04:04:44.481Z,1003.70
2022-07-29T04:05:46.161Z,1003.71
2022-07-29T04:06:48.333Z,1003.70
2022-07-29T04:07:48.327Z,1003.69
2022-07-29T04:08:50.534Z,1003.69
2022-07-29T04:09:51.501Z,1003.71
2022-07-29T04:10:52.460Z,1003.72
2022-07-29T04:12:02.711Z,1003.74
2022-07-29T04:12:56.904Z,1003.74
2022-07-29T04:13:56.910Z,1003.79
2022-07-29T04:14:59.035Z,1003.75
2022-07-29T04:17:03.019Z,1003.74
2022-07-29T04:18:05.141Z,1003.69
2022-07-29T04:19:07.269Z,1003.71
2022-07-29T04:20:09.405Z,1003.71
2022-07-29T04:21:11.563Z,1003.74
2022-07-29T04:22:13.738Z,1003.72
2022-07-29T04:23:14.770Z,1003.71
2022-07-29T04:24:22.960Z,1003.72
2022-07-29T04:25:18.309Z,1003.70
2022-07-29T04:26:20.671Z,1003.72
2022-07-29T04:27:27.629Z,1003.71
2022-07-29T04:28:22.742Z,1003.74
2022-07-29T04:29:24.872Z,1003.76
2022-07-29T04:30:26.962Z,1003.75
2022-07-29T04:31:29.237Z,1003.75
2022-07-29T04:32:30.290Z,1003.75
2022-07-29T04:33:31.343Z,1003.73
2022-07-29T04:34:33.507Z,1003.76
2022-07-29T04:35:38.057Z,1003.71
2022-07-29T04:36:37.155Z,1003.74
2022-07-29T04:37:39.348Z,1003.74
2022-07-29T04:38:40.529Z,1003.72
2022-07-29T04:39:42.651Z,1003.78
2022-07-29T04:40:44.793Z,1003.82
2022-07-29T04:41:47.215Z,1003.80
2022-07-29T04:42:49.438Z,1003.85
2022-07-29T04:43:50.688Z,1003.81
2022-07-29T04:44:52.555Z,1003.82
2022-07-29T04:46:00.851Z,1003.79
2022-07-29T04:46:55.955Z,1003.81
2022-07-29T04:47:58.038Z,1003.80
2022-07-29T04:49:00.350Z,1003.84
2022-07-29T04:50:01.384Z,1003.82
2022-07-29T04:51:02.566Z,1003.85
2022-07-29T04:52:03.721Z,1003.83
2022-07-29T04:53:04.889Z,1003.85
2022-07-29T04:54:06.546Z,1003.82
2022-07-29T04:55:08.675Z,1003.77
2022-07-29T04:56:16.852Z,1003.80
2022-07-29T04:57:13.100Z,1003.78
2022-07-29T04:58:15.241Z,1003.82
2022-07-29T04:59:16.203Z,1003.84
2022-07-29T05:00:18.339Z,1003.82
2022-07-29T05:01:25.653Z,1003.88
2022-07-29T05:02:21.022Z,1003.84
2022-07-29T05:03:22.355Z,1003.81
2022-07-29T05:04:23.360Z,1003.85
2022-07-29T05:05:25.484Z,1003.81
2022-07-29T05:06:33.728Z,1003.82
2022-07-29T05:07:28.864Z,1003.83
2022-07-29T05:08:30.987Z,1003.81
2022-07-29T05:09:33.155Z,1003.81
2022-07-29T05:10:35.337Z,1003.81
2022-07-29T05:11:37.521Z,1003.79
2022-07-29T05:12:39.674Z,1003.79
2022-07-29T05:13:46.070Z,1003.78
2022-07-29T05:14:43.071Z,1003.76
2022-07-29T05:15:44.431Z,1003.75
2022-07-29T05:16:45.371Z,1003.76
2022-07-29T05:17:47.542Z,1003.75
2022-07-29T05:18:49.899Z,1003.76
2022-07-29T05:19:52.157Z,1003.74
2022-07-29T05:20:54.479Z,1003.75
2022-07-29T05:21:56.612Z,1003.79
2022-07-29T05:22:58.865Z,1003.83
2022-07-29T05:24:00.955Z,1003.78
2022-07-29T05:25:06.989Z,1003.80
2022-07-29T05:26:04.344Z,1003.83
2022-07-29T05:27:05.501Z,1003.86
2022-07-29T05:28:06.479Z,1003.87
2022-07-29T05:29:07.659Z,1003.87
2022-07-29T05:30:09.906Z,1003.90
2022-07-29T05:31:11.000Z,1003.87
2022-07-29T05:32:12.034Z,1003.89
2022-07-29T05:33:34.737Z,1003.89
2022-07-29T05:34:17.106Z,1003.85
2022-07-29T05:35:17.279Z,1003.82
2022-07-29T05:36:18.453Z,1003.84
2022-07-29T05:37:19.673Z,1003.84
2022-07-29T05:38:27.860Z,1003.89
2022-07-29T05:39:23.129Z,1003.84
2022-07-29T05:40:24.396Z,1003.86
2022-07-29T05:41:32.772Z,1003.81
2022-07-29T05:42:27.943Z,1003.83
2022-07-29T05:43:30.097Z,1003.78
2022-07-29T05:44:32.256Z,1003.80
2022-07-29T05:45:34.411Z,1003.81
2022-07-29T05:46:36.680Z,1003.84
2022-07-29T05:47:37.789Z,1003.81
2022-07-29T05:48:39.010Z,1003.80
2022-07-29T05:49:41.189Z,1003.77
2022-07-29T05:50:44.162Z,1003.73
2022-07-29T05:51:51.438Z,1003.74
2022-07-29T05:52:46.562Z,1003.76
2022-07-29T05:54:49.928Z,1003.76
2022-07-29T05:55:52.057Z,1003.78
2022-07-29T05:57:00.438Z,1003.78
2022-07-29T05:57:55.550Z,1003.78
2022-07-29T05:58:57.706Z,1003.75
2022-07-29T05:59:58.899Z,1003.71
2022-07-29T06:01:00.625Z,1003.70
2022-07-29T06:02:01.972Z,1003.71
2022-07-29T06:03:03.714Z,1003.71
2022-07-29T06:04:05.884Z,1003.71
2022-07-29T06:05:07.291Z,1003.73
2022-07-29T06:06:09.534Z,1003.71
2022-07-29T06:07:10.534Z,1003.71
2022-07-29T06:08:12.655Z,1003.67
2022-07-29T06:09:14.776Z,1003.66
2022-07-29T06:10:16.894Z,1003.65
2022-07-29T06:11:17.845Z,1003.63
2022-07-29T06:12:18.836Z,1003.63
2022-07-29T06:13:20.034Z,1003.70
2022-07-29T06:14:21.249Z,1003.62
2022-07-29T06:15:23.390Z,1003.63
2022-07-29T06:16:31.633Z,1003.61
2022-07-29T06:17:26.997Z,1003.63
2022-07-29T06:18:34.401Z,1003.64
2022-07-29T06:19:29.512Z,1003.63
2022-07-29T06:20:30.984Z,1003.60
2022-07-29T06:21:32.307Z,1003.64
2022-07-29T06:22:33.592Z,1003.65
2022-07-29T06:23:34.639Z,1003.69
2022-07-29T06:24:36.749Z,1003.67
2022-07-29T06:25:39.062Z,1003.68
2022-07-29T06:26:41.457Z,1003.69
2022-07-29T06:27:42.411Z,1003.70
2022-07-29T06:28:43.384Z,1003.69
2022-07-29T06:29:45.471Z,1003.73
2022-07-29T06:30:47.594Z,1003.68
2022-07-29T06:31:48.797Z,1003.66
2022-07-29T06:32:51.126Z,1003.66
2022-07-29T06:33:52.082Z,1003.64
2022-07-29T06:34:54.721Z,1003.62
2022-07-29T06:35:55.671Z,1003.60
2022-07-29T06:36:56.057Z,1003.57
2022-07-29T06:37:59.564Z,1003.59
2022-07-29T06:38:58.589Z,1003.60
2022-07-29T06:40:06.312Z,1003.63
2022-07-29T06:41:01.452Z,1003.65
2022-07-29T06:42:03.610Z,1003.60
2022-07-29T06:43:04.800Z,1003.66
2022-07-29T06:44:07.076Z,1003.67
2022-07-29T06:45:09.493Z,1003.66
2022-07-29T06:46:11.340Z,1003.62
2022-07-29T06:47:12.410Z,1003.65
2022-07-29T06:48:14.538Z,1003.70
2022-07-29T06:49:16.722Z,1003.71
2022-07-29T06:50:24.035Z,1003.69
2022-07-29T06:51:21.778Z,1003.68
2022-07-29T06:52:22.081Z,1003.70
2022-07-29T06:53:23.034Z,1003.74
2022-07-29T06:54:24.023Z,1003.73
2022-07-29T06:55:25.473Z,1003.74
2022-07-29T06:56:26.637Z,1003.75
2022-07-29T06:57:28.770Z,1003.81
2022-07-29T06:58:30.933Z,1003.82
2022-07-29T06:59:35.540Z,1003.93
2022-07-29T07:00:33.776Z,1004.01
2022-07-29T07:01:36.093Z,1004.01
2022-07-29T07:02:37.182Z,1003.91
2022-07-29T07:03:39.403Z,1003.85
2022-07-29T07:04:41.522Z,1003.85
2022-07-29T07:05:43.616Z,1003.85
2022-07-29T07:06:45.734Z,1004.02
2022-07-29T07:07:47.862Z,1003.95
2022-07-29T07:08:50.000Z,1003.92
2022-07-29T07:09:51.294Z,1003.91
2022-07-29T07:10:53.461Z,1003.88
2022-07-29T07:11:54.419Z,1003.92
2022-07-29T07:12:56.538Z,1003.96
2022-07-29T07:14:03.003Z,1003.97
2022-07-29T07:15:00.071Z,1003.99
2022-07-29T07:16:01.097Z,1003.89
2022-07-29T07:17:02.354Z,1003.75
2022-07-29T07:18:03.391Z,1003.91
2022-07-29T07:19:05.509Z,1003.91
2022-07-29T07:20:07.606Z,1003.89
2022-07-29T07:21:08.872Z,1003.97
2022-07-29T07:22:11.084Z,1003.95
2022-07-29T07:23:13.261Z,1003.98
2022-07-29T07:24:15.647Z,1004.01
2022-07-29T07:25:16.795Z,1004.02
2022-07-29T07:26:19.130Z,1003.94
2022-07-29T07:27:20.081Z,1003.93
2022-07-29T07:28:28.229Z,1003.99
2022-07-29T07:29:23.390Z,1004.01
2022-07-29T07:30:24.548Z,1004.01
2022-07-29T07:31:26.700Z,1003.99
2022-07-29T07:32:27.968Z,1004.01
2022-07-29T07:33:28.969Z,1004.08
2022-07-29T07:34:31.068Z,1004.09
2022-07-29T07:35:33.191Z,1004.14
2022-07-29T07:36:35.319Z,1004.16
2022-07-29T07:37:37.495Z,1004.14
2022-07-29T07:38:39.583Z,1004.13
2022-07-29T07:39:41.686Z,1004.17
2022-07-29T07:40:43.968Z,1004.15
2022-07-29T07:41:44.890Z,1004.13
2022-07-29T07:42:47.018Z,1004.06
2022-07-29T07:43:49.155Z,1004.14
2022-07-29T07:45:12.227Z,1004.12
2022-07-29T07:45:53.694Z,1004.15
2022-07-29T07:46:54.838Z,1004.06
2022-07-29T07:47:56.999Z,1004.08
2022-07-29T07:48:59.138Z,1004.08
2022-07-29T07:50:01.259Z,1004.02
2022-07-29T07:51:03.369Z,1004.03
2022-07-29T07:52:04.459Z,1004.06
2022-07-29T07:53:05.657Z,1004.08
2022-07-29T07:54:07.758Z,1004.05
2022-07-29T07:55:09.848Z,1004.08
2022-07-29T07:56:12.875Z,1004.09
2022-07-29T07:57:14.163Z,1004.11
2022-07-29T07:58:16.298Z,1004.07
2022-07-29T07:59:18.406Z,1004.10
2022-07-29T08:00:22.971Z,1004.11
2022-07-29T08:01:22.435Z,1004.09
2022-07-29T08:02:24.724Z,1004.08
2022-07-29T08:03:25.672Z,1004.07
2022-07-29T08:04:29.087Z,1004.10
2022-07-29T08:05:29.244Z,1004.07
2022-07-29T08:06:33.400Z,1004.02
2022-07-29T08:07:33.163Z,1004.04
2022-07-29T08:08:35.340Z,1003.96
2022-07-29T08:09:37.495Z,1003.98
2022-07-29T08:10:39.595Z,1004.01
2022-07-29T08:11:52.211Z,1003.98
2022-07-29T08:12:43.891Z,1003.99
2022-07-29T08:13:44.803Z,1003.97
2022-07-29T08:14:46.960Z,1003.96
2022-07-29T08:15:49.070Z,1003.94
2022-07-29T08:16:51.216Z,1003.97
2022-07-29T08:17:52.165Z,1003.96
2022-07-29T08:18:54.620Z,1003.93
2022-07-29T08:19:55.657Z,1003.92
2022-07-29T08:20:56.621Z,1003.95
2022-07-29T08:21:57.644Z,1003.95
2022-07-29T08:22:59.728Z,1003.92
2022-07-29T08:24:06.690Z,1003.93
2022-07-29T08:25:02.990Z,1003.93
2022-07-29T08:26:05.132Z,1003.85
2022-07-29T08:27:21.265Z,1003.96
2022-07-29T08:28:09.451Z,1003.92
2022-07-29T08:29:10.622Z,1003.90
2022-07-29T08:30:12.835Z,1003.87
2022-07-29T08:31:15.204Z,1003.82
2022-07-29T08:32:31.011Z,1003.83
2022-07-29T08:33:24.925Z,1003.79
2022-07-29T08:34:18.867Z,1003.81
2022-07-29T08:35:20.035Z,1003.79
2022-07-29T08:36:22.304Z,1003.76
2022-07-29T08:37:23.296Z,1003.78
2022-07-29T08:38:25.529Z,1003.80
2022-07-29T08:39:26.691Z,1003.75
2022-07-29T08:40:31.926Z,1003.77
2022-07-29T08:41:30.120Z,1003.80
2022-07-29T08:42:32.202Z,1003.76
2022-07-29T08:43:34.281Z,1003.78
2022-07-29T08:44:36.366Z,1003.74
2022-07-29T08:45:38.524Z,1003.71
2022-07-29T08:46:40.755Z,1003.73
2022-07-29T08:47:41.832Z,1003.76
2022-07-29T08:48:42.859Z,1003.77
2022-07-29T08:49:43.808Z,1003.71
2022-07-29T08:50:46.523Z,1003.71
2022-07-29T08:51:49.201Z,1003.75
2022-07-29T08:52:49.470Z,1003.69
2022-07-29T08:53:51.557Z,1003.62
2022-07-29T08:54:53.656Z,1003.72
2022-07-29T08:55:55.745Z,1003.80
2022-07-29T08:56:57.844Z,1003.68
2022-07-29T08:57:59.928Z,1003.60
2022-07-29T08:59:01.085Z,1003.54
2022-07-29T09:00:08.015Z,1003.56
2022-07-29T09:01:05.064Z,1003.51
2022-07-29T09:02:05.110Z,1003.51
2022-07-29T09:03:07.184Z,1003.60
2022-07-29T09:04:09.357Z,1003.71
2022-07-29T09:05:11.497Z,1003.66
2022-07-29T09:06:13.659Z,1003.59
2022-07-29T09:07:15.781Z,1003.55
2022-07-29T09:08:17.920Z,1003.57
2022-07-29T09:09:20.005Z,1003.60
2022-07-29T09:10:22.110Z,1003.68
2022-07-29T09:11:24.192Z,1003.54
2022-07-29T09:12:29.077Z,1003.52
2022-07-29T09:13:27.425Z,1003.50
2022-07-29T09:14:29.508Z,1003.53
2022-07-29T09:15:31.604Z,1003.64
2022-07-29T09:16:52.162Z,1003.70
2022-07-29T09:17:35.919Z,1003.51
2022-07-29T09:18:36.842Z,1003.46
2022-07-29T09:19:39.055Z,1003.51
2022-07-29T09:20:41.290Z,1003.44
2022-07-29T09:21:42.238Z,1003.50
2022-07-29T09:22:44.376Z,1003.52
2022-07-29T09:23:46.463Z,1003.55
2022-07-29T09:24:48.620Z,1003.58
2022-07-29T09:25:50.714Z,1003.53
2022-07-29T09:26:53.146Z,1003.59
2022-07-29T09:27:54.249Z,1003.56
2022-07-29T09:28:56.473Z,1003.60
2022-07-29T09:29:58.557Z,1003.54
2022-07-29T09:31:00.645Z,1003.50
2022-07-29T09:32:02.763Z,1003.44
2022-07-29T09:33:04.871Z,1003.57
2022-07-29T09:34:06.959Z,1003.57
2022-07-29T09:35:09.121Z,1003.63
2022-07-29T09:36:11.295Z,1003.58
2022-07-29T09:37:12.227Z,1003.66
2022-07-29T09:38:14.326Z,1003.64
2022-07-29T09:39:17.812Z,1003.61
2022-07-29T09:40:17.708Z,1003.59
2022-07-29T09:41:25.856Z,1003.61
2022-07-29T09:42:20.987Z,1003.56
2022-07-29T09:43:23.078Z,1003.59
2022-07-29T09:44:25.181Z,1003.61
2022-07-29T09:45:27.298Z,1003.63
2022-07-29T09:46:29.440Z,1003.64
2022-07-29T09:47:31.536Z,1003.57
2022-07-29T09:48:33.680Z,1003.64
2022-07-29T09:49:35.734Z,1003.58
2022-07-29T09:50:37.801Z,1003.48
2022-07-29T09:51:39.938Z,1003.37
2022-07-29T09:52:42.060Z,1003.48
2022-07-29T09:53:44.103Z,1003.51
2022-07-29T09:54:45.289Z,1003.38
2022-07-29T09:55:47.348Z,1003.50
2022-07-29T09:56:49.428Z,1003.50
2022-07-29T09:57:51.483Z,1003.45
2022-07-29T09:58:53.634Z,1003.47
2022-07-29T09:59:55.946Z,1003.45
2022-07-29T10:00:58.078Z,1003.43
2022-07-29T10:01:59.648Z,1003.43
2022-07-29T10:03:01.751Z,1003.43
2022-07-29T10:04:02.814Z,1003.44
2022-07-29T10:05:04.919Z,1003.46
2022-07-29T10:06:07.005Z,1003.43
2022-07-29T10:07:15.188Z,1003.38
2022-07-29T10:08:11.458Z,1003.35
2022-07-29T10:09:13.508Z,1003.37
2022-07-29T10:10:15.599Z,1003.36
2022-07-29T10:11:17.478Z,1003.32
2022-07-29T10:12:19.559Z,1003.30
2022-07-29T10:13:21.639Z,1003.27
2022-07-29T10:14:23.718Z,1003.31
2022-07-29T10:15:25.949Z,1003.31
2022-07-29T10:16:28.115Z,1003.36
2022-07-29T10:17:30.309Z,1003.30
2022-07-29T10:18:32.354Z,1003.31
2022-07-29T10:19:34.480Z,1003.32
2022-07-29T10:20:35.362Z,1003.24
2022-07-29T10:21:37.447Z,1003.20
2022-07-29T10:22:54.459Z,1003.21
2022-07-29T10:23:46.331Z,1003.17
2022-07-29T10:24:42.956Z,1003.20
2022-07-29T10:25:46.558Z,1003.19
2022-07-29T10:26:46.445Z,1003.17
2022-07-29T10:27:48.491Z,1003.16
2022-07-29T10:28:50.582Z,1003.18
2022-07-29T10:29:52.639Z,1003.23
2022-07-29T10:30:53.789Z,1003.18
2022-07-29T10:31:56.247Z,1003.19
2022-07-29T10:32:57.348Z,1003.24
2022-07-29T10:33:59.460Z,1003.23
2022-07-29T10:35:00.968Z,1003.21
2022-07-29T10:36:03.026Z,1003.22
2022-07-29T10:37:05.208Z,1003.22
2022-07-29T10:38:06.869Z,1003.19
2022-07-29T10:39:08.420Z,1003.21
2022-07-29T10:40:09.515Z,1003.19
2022-07-29T10:41:11.179Z,1003.22
2022-07-29T10:42:13.263Z,1003.18
2022-07-29T10:43:14.479Z,1003.24
2022-07-29T10:44:17.205Z,1003.19
2022-07-29T10:45:17.633Z,1003.20
2022-07-29T10:46:19.773Z,1003.12
2022-07-29T10:47:21.878Z,1003.12
2022-07-29T10:48:23.709Z,1003.11
2022-07-29T10:49:31.514Z,1003.14
2022-07-29T10:50:26.585Z,1003.08
2022-07-29T10:51:27.931Z,1003.11
2022-07-29T10:52:30.380Z,1003.11
2022-07-29T10:53:33.898Z,1003.10
2022-07-29T10:54:31.453Z,1003.06
2022-07-29T10:55:33.461Z,1003.05
2022-07-29T10:56:35.524Z,1003.06
2022-07-29T10:57:53.139Z,1003.03
2022-07-29T10:58:39.883Z,1003.01
2022-07-29T10:59:40.822Z,1003.08
2022-07-29T11:00:42.904Z,1003.05
2022-07-29T11:01:49.319Z,1003.06
2022-07-29T11:02:45.982Z,1003.07
2022-07-29T11:03:49.777Z,1003.06
2022-07-29T11:04:48.504Z,1003.04
2022-07-29T11:05:50.070Z,1003.01
2022-07-29T11:06:52.096Z,1003.00
2022-07-29T11:07:53.450Z,1003.00
2022-07-29T11:08:55.512Z,1002.96
2022-07-29T11:09:57.573Z,1002.95
2022-07-29T11:10:59.677Z,1003.00
2022-07-29T11:12:02.314Z,1003.00
2022-07-29T11:13:03.984Z,1003.01
2022-07-29T11:14:05.379Z,1003.01
2022-07-29T11:15:07.744Z,1003.00
2022-07-29T11:16:09.298Z,1002.96
2022-07-29T11:17:11.019Z,1002.99
2022-07-29T11:18:14.841Z,1002.96
2022-07-29T11:19:14.814Z,1003.00
2022-07-29T11:20:15.759Z,1002.99
2022-07-29T11:21:18.087Z,1002.96
2022-07-29T11:22:19.282Z,1002.95
2022-07-29T11:23:20.517Z,1002.97
2022-07-29T11:24:29.221Z,1002.95
2022-07-29T11:25:42.387Z,1002.96
2022-07-29T11:26:26.100Z,1002.87
2022-07-29T11:27:28.807Z,1002.76
2022-07-29T11:28:29.757Z,1002.86
2022-07-29T11:29:31.807Z,1002.90
2022-07-29T11:30:34.157Z,1002.99
2022-07-29T11:31:35.315Z,1002.92
2022-07-29T11:32:36.840Z,1002.91
2022-07-29T11:33:56.280Z,1002.94
2022-07-29T11:34:38.961Z,1002.93
2022-07-29T11:35:41.028Z,1002.92
2022-07-29T11:36:43.176Z,1002.89
2022-07-29T11:37:46.068Z,1002.88
2022-07-29T11:38:45.833Z,1002.88
2022-07-29T11:39:47.883Z,1002.85
2022-07-29T11:40:50.058Z,1002.86
2022-07-29T11:41:52.118Z,1002.85
2022-07-29T11:42:55.131Z,1002.82
2022-07-29T11:43:56.144Z,1002.87
2022-07-29T11:44:58.221Z,1002.82
2022-07-29T11:46:00.338Z,1002.85
2022-07-29T11:47:02.390Z,1002.84
2022-07-29T11:48:27.841Z,1002.78
2022-07-29T11:49:09.762Z,1002.78
2022-07-29T11:50:10.263Z,1002.75
2022-07-29T11:51:08.979Z,1002.74
2022-07-29T11:52:10.996Z,1002.75
2022-07-29T11:53:11.460Z,1002.76
2022-07-29T11:54:13.042Z,1002.77
2022-07-29T11:55:14.629Z,1002.75
2022-07-29T11:56:17.230Z,1002.70
2022-07-29T11:57:18.205Z,1002.69
2022-07-29T11:58:19.321Z,1002.65
2022-07-29T11:59:21.367Z,1002.71
2022-07-29T12:00:22.997Z,1002.66
2022-07-29T12:01:24.138Z,1002.68
2022-07-29T12:02:37.873Z,1002.67
2022-07-29T12:03:33.327Z,1002.56
2022-07-29T12:04:28.336Z,1002.62
2022-07-29T12:05:36.403Z,1002.61
2022-07-29T12:06:30.557Z,1002.56
2022-07-29T12:07:35.346Z,1002.55
2022-07-29T12:08:34.329Z,1002.59
2022-07-29T12:09:40.348Z,1002.54
2022-07-29T12:10:37.738Z,1002.52
2022-07-29T12:11:39.875Z,1002.54
2022-07-29T12:12:41.970Z,1002.53
2022-07-29T12:13:44.018Z,1002.48
2022-07-29T12:14:45.948Z,1002.47
2022-07-29T12:15:48.048Z,1002.52
2022-07-29T12:16:49.309Z,1002.46
2022-07-29T12:17:51.410Z,1002.42
2022-07-29T12:18:52.545Z,1002.41
2022-07-29T12:19:54.624Z,1002.36
2022-07-29T12:20:56.737Z,1002.35
2022-07-29T12:21:59.749Z,1002.39
2022-07-29T12:22:59.451Z,1002.35
2022-07-29T12:24:08.733Z,1002.38
2022-07-29T12:25:31.960Z,1002.31
2022-07-29T12:26:07.234Z,1002.34
2022-07-29T12:27:06.383Z,1002.33
2022-07-29T12:28:08.479Z,1002.32
2022-07-29T12:29:15.524Z,1002.26
2022-07-29T12:30:10.924Z,1002.39
2022-07-29T12:31:13.043Z,1002.34
2022-07-29T12:32:19.729Z,1002.35
2022-07-29T12:33:16.296Z,1002.33
2022-07-29T12:34:18.346Z,1002.36
2022-07-29T12:35:20.447Z,1002.19
2022-07-29T12:36:22.493Z,1002.28
2022-07-29T12:37:38.966Z,1002.18
2022-07-29T12:38:26.749Z,1002.13
2022-07-29T12:39:27.665Z,1002.05
2022-07-29T12:40:29.750Z,1002.07
2022-07-29T12:41:31.798Z,1002.18
2022-07-29T12:42:33.892Z,1002.13
2022-07-29T12:43:35.943Z,1002.17
2022-07-29T12:44:38.113Z,1002.08
2022-07-29T12:45:39.045Z,1002.18
2022-07-29T12:46:41.217Z,1002.12
2022-07-29T12:47:43.350Z,1002.10
2022-07-29T12:48:45.587Z,1002.05
2022-07-29T12:49:46.546Z,1002.01
2022-07-29T12:50:48.621Z,1002.02
2022-07-29T12:51:50.875Z,1002.00
2022-07-29T12:52:51.795Z,1001.98
2022-07-29T12:53:53.881Z,1002.02
2022-07-29T12:54:56.009Z,1002.06
2022-07-29T12:55:58.097Z,1002.03
2022-07-29T12:56:59.152Z,1001.98
2022-07-29T12:58:01.328Z,1001.99
2022-07-29T12:59:03.415Z,1002.00
2022-07-29T13:00:05.498Z,1001.95
2022-07-29T13:01:07.645Z,1001.95
2022-07-29T13:02:09.870Z,1001.91
2022-07-29T13:03:10.919Z,1001.93
2022-07-29T13:04:12.083Z,1001.90
2022-07-29T13:05:14.208Z,1001.94
2022-07-29T13:06:16.296Z,1001.91
2022-07-29T13:07:18.336Z,1001.90
2022-07-29T13:08:22.208Z,1001.91
2022-07-29T13:09:22.023Z,1001.91
2022-07-29T13:10:24.191Z,1001.89
2022-07-29T13:11:24.547Z,1001.94
2022-07-29T13:12:26.624Z,1001.95
2022-07-29T13:13:28.937Z,1001.91
2022-07-29T13:14:30.248Z,1001.93
2022-07-29T13:15:32.339Z,1001.93
2022-07-29T13:16:40.632Z,1001.92
2022-07-29T13:17:35.882Z,1001.89
2022-07-29T13:18:44.026Z,1001.89
2022-07-29T13:19:40.268Z,1001.89
2022-07-29T13:20:41.452Z,1001.90
2022-07-29T13:21:43.534Z,1001.89
2022-07-29T13:22:51.677Z,1001.92
2022-07-29T13:23:46.763Z,1001.91
2022-07-29T13:24:48.881Z,1001.86
2022-07-29T13:25:51.038Z,1001.89
2022-07-29T13:26:53.110Z,1001.87
2022-07-29T13:27:55.187Z,1001.87
2022-07-29T13:28:57.237Z,1001.85
2022-07-29T13:29:58.383Z,1001.83
2022-07-29T13:31:00.603Z,1001.83
2022-07-29T13:32:07.716Z,1001.80
2022-07-29T13:33:02.794Z,1001.76
2022-07-29T13:34:04.899Z,1001.77
2022-07-29T13:35:06.058Z,1001.80
2022-07-29T13:36:08.163Z,1001.78
2022-07-29T13:37:09.294Z,1001.81
2022-07-29T13:38:10.677Z,1001.80
2022-07-29T13:39:12.760Z,1001.81
2022-07-29T13:40:14.840Z,1001.79
2022-07-29T13:41:16.925Z,1001.74
2022-07-29T13:42:18.636Z,1001.79
2022-07-29T13:43:20.794Z,1001.75
2022-07-29T13:44:22.874Z,1001.73
2022-07-29T13:45:24.058Z,1001.70
2022-07-29T13:46:26.173Z,1001.67
2022-07-29T13:47:32.518Z,1001.65
2022-07-29T13:48:28.437Z,1001.62
2022-07-29T13:49:30.554Z,1001.61
2022-07-29T13:50:32.669Z,1001.60
2022-07-29T13:51:34.747Z,1001.64
2022-07-29T13:52:42.963Z,1001.62
2022-07-29T13:53:38.250Z,1001.62
2022-07-29T13:54:42.611Z,1001.63
2022-07-29T13:55:42.603Z,1001.61
2022-07-29T13:56:44.050Z,1001.62
2022-07-29T13:57:46.084Z,1001.63
2022-07-29T13:58:47.612Z,1001.57
2022-07-29T13:59:53.883Z,1001.54
2022-07-29T14:00:51.976Z,1001.60
2022-07-29T14:01:54.150Z,1001.60
2022-07-29T14:03:01.115Z,1001.61
2022-07-29T14:03:56.459Z,1001.58
2022-07-29T14:04:58.624Z,1001.56
2022-07-29T14:06:00.777Z,1001.57
2022-07-29T14:07:03.795Z,1001.57
2022-07-29T14:08:03.698Z,1001.55
2022-07-29T14:09:11.939Z,1001.54
2022-07-29T14:10:07.013Z,1001.59
2022-07-29T14:11:09.092Z,1001.57
2022-07-29T14:12:10.205Z,1001.54
2022-07-29T14:13:25.406Z,1001.54
2022-07-29T14:14:14.501Z,1001.53
2022-07-29T14:15:15.411Z,1001.50
2022-07-29T14:16:17.601Z,1001.48
2022-07-29T14:17:18.627Z,1001.46
2022-07-29T14:18:20.888Z,1001.46
2022-07-29T14:19:23.014Z,1001.44
2022-07-29T14:20:25.102Z,1001.42
2022-07-29T14:21:27.193Z,1001.43
2022-07-29T14:22:29.274Z,1001.37
2022-07-29T14:23:31.113Z,1001.37
2022-07-29T14:24:38.118Z,1001.39
2022-07-29T14:25:34.068Z,1001.35
2022-07-29T14:26:36.226Z,1001.39
2022-07-29T14:27:38.697Z,1001.35
2022-07-29T14:28:41.940Z,1001.34
2022-07-29T14:29:41.849Z,1001.34
2022-07-29T14:30:43.927Z,1001.32
2022-07-29T14:31:45.589Z,1001.31
2022-07-29T14:32:47.814Z,1001.32
2022-07-29T14:33:49.281Z,1001.33
2022-07-29T14:34:50.378Z,1001.32
2022-07-29T14:35:52.503Z,1001.27
2022-07-29T14:36:54.697Z,1001.28
2022-07-29T14:37:55.640Z,1001.28
2022-07-29T14:38:56.815Z,1001.26
2022-07-29T14:39:58.951Z,1001.28
2022-07-29T14:41:01.043Z,1001.29
2022-07-29T14:42:02.723Z,1001.31
2022-07-29T14:43:04.810Z,1001.28
2022-07-29T14:44:07.087Z,1001.32
2022-07-29T14:45:08.286Z,1001.34
2022-07-29T14:46:10.457Z,1001.33
2022-07-29T14:47:11.409Z,1001.35
2022-07-29T14:48:13.489Z,1001.35
2022-07-29T14:49:15.709Z,1001.36
2022-07-29T14:50:17.824Z,1001.37
2022-07-29T14:51:20.143Z,1001.36
2022-07-29T14:52:21.103Z,1001.33
2022-07-29T14:53:23.160Z,1001.33
2022-07-29T14:54:25.247Z,1001.33
2022-07-29T14:55:27.387Z,1001.31
2022-07-29T14:56:37.692Z,1001.29
2022-07-29T14:57:31.733Z,1001.29
2022-07-29T14:58:32.321Z,1001.32
2022-07-29T14:59:33.234Z,1001.31
2022-07-29T15:00:35.334Z,1001.34
2022-07-29T15:01:37.479Z,1001.37
2022-07-29T15:03:00.564Z,1001.33
2022-07-29T15:03:47.849Z,1001.37
2022-07-29T15:04:42.935Z,1001.34
2022-07-29T15:05:44.985Z,1001.36
2022-07-29T15:06:47.193Z,1001.36
2022-07-29T15:07:49.265Z,1001.35
2022-07-29T15:08:51.379Z,1001.33
2022-07-29T15:09:58.033Z,1001.34
2022-07-29T15:10:55.813Z,1001.29
2022-07-29T15:11:56.746Z,1001.31
2022-07-29T15:12:57.869Z,1001.33
2022-07-29T15:13:59.957Z,1001.30
2022-07-29T15:15:02.265Z,1001.30
2022-07-29T15:16:04.531Z,1001.33
2022-07-29T15:17:06.745Z,1001.35
2022-07-29T15:18:14.773Z,1001.31
2022-07-29T15:19:11.206Z,1001.30
2022-07-29T15:20:12.121Z,1001.34
2022-07-29T15:21:13.891Z,1001.28
2022-07-29T15:22:15.979Z,1001.37
2022-07-29T15:23:17.122Z,1001.30
2022-07-29T15:24:19.213Z,1001.34
2022-07-29T15:25:20.369Z,1001.31
2022-07-29T15:26:22.456Z,1001.27
2022-07-29T15:27:24.640Z,1001.30
2022-07-29T15:28:26.948Z,1001.31
2022-07-29T15:29:28.191Z,1001.28
2022-07-29T15:30:32.703Z,1001.27
2022-07-29T15:31:32.394Z,1001.28
2022-07-29T15:32:33.313Z,1001.21
2022-07-29T15:33:34.281Z,1001.22
2022-07-29T15:34:35.293Z,1001.22
2022-07-29T15:35:39.974Z,1001.13
2022-07-29T15:36:54.430Z,1001.16
2022-07-29T15:37:49.455Z,1001.18
2022-07-29T15:38:43.318Z,1001.12
2022-07-29T15:39:44.434Z,1001.10
2022-07-29T15:40:45.423Z,1001.15
2022-07-29T15:41:47.042Z,1001.12
2022-07-29T15:42:49.139Z,1001.12
2022-07-29T15:43:51.417Z,1001.08
2022-07-29T15:44:52.546Z,1001.09
2022-07-29T15:45:54.891Z,1001.11
2022-07-29T15:46:57.369Z,1001.17
2022-07-29T15:47:58.393Z,1001.31
2022-07-29T15:49:00.547Z,1001.43
2022-07-29T15:50:01.998Z,1001.51
2022-07-29T15:51:04.102Z,1001.50
2022-07-29T15:52:06.280Z,1001.45
2022-07-29T15:53:14.419Z,1001.55
2022-07-29T15:54:09.510Z,1001.44
2022-07-29T15:55:11.659Z,1001.57
2022-07-29T15:56:13.870Z,1001.59
2022-07-29T15:57:14.799Z,1001.55
2022-07-29T15:58:16.928Z,1001.50
2022-07-29T15:59:22.525Z,1001.51
2022-07-29T16:00:21.312Z,1001.50
2022-07-29T16:01:23.450Z,1001.49